Julian, CA (92036)

9:54 AM PST on February 09, 2016 (GMT -0800)
The Kenner Ranch, Station 2 | | Change Station
CLOSE
Current Station
Personal Weather Station
Location: Julian, CA
Elevation: 4327 ft
Nearby Weather Stations

Elev 4327 ft 33.03 °N, 116.58 °W | Updated 20 minutes ago

Clear
Clear
66.4 °F
Feels Like 66.4 °F
N
4.0
Wind Variable Wind from SE
Gusts 15.0 mph

Today
High -- | Low -- °F
--% Chance of Precip.
Yesterday
High -- | Low -- °F
Precip. -- in
Pressure 30.14 in
Visibility -9999.0 miles
Clouds
Dew Point 26 °F
Humidity 22%
Rainfall 0.00 in
Snow Depth Not available.
6:35 AM 5:25 PM
New Moon, 2% visible
METAR KCZZ 091752Z AUTO 05008G18KT 23/M04 A3022 RMK AO1 SLP206 T02281044 10228 20083 53009
Pressure 30.14 in
Visibility -9999.0 miles
Clouds
Dew Point 26 °F
Humidity 22%
Rainfall 0.00 in
Snow Depth Not available.
6:35 AM 5:25 PM
New Moon, 2% visible
METAR KCZZ 091752Z AUTO 05008G18KT 23/M04 A3022 RMK AO1 SLP206 T02281044 10228 20083 53009

10-Day Weather Forecast

Almanac

Astronomy

Feb. 09, 2016 Rise Set
Actual Time
Civil Twilight
Nautical Twilight
Astronomical Twilight
Moon
Length of Visible Light
Length of Day
Tomorrow will be .
, % of the Moon is Illuminated

Today's Extremes

State Highs State Lows

Community

WunderPhotos

Upload Photos

1,891,650 photos uploaded!

WunderBlog® & News

Nearby

Air Quality

  Air Quality AQ Index Pollutant
Not available.

Snow Depth

Station Depth Elevation

Earthquake Activity

City Distance Mag. Time & Date
Minimum magnitude displayed is 2.5.

Coastal Water Temperatures

Place Temperature

Stations

Nearby Weather Stations

Station Location Temp. Windchill Dew Point Humidity Wind Precip. Elev Updated Type
                   

Watches & Warnings

There are currently no watches in effect.